This is the latest recevied weather packets stored in our database for station/object AD6NH. If no packets are shown the sender has not sent any weather packets the latest 10 day(s).
| Time | Temp. | Humidity | Pressure | Rain* | Wind** | Luminosity | Snow |
|---|---|---|---|---|---|---|---|
| 1777999023 | 17.78° C | 62% | 1015.1 hPa | 0 mm | - | - | - |
| 1777998422 | 18.33° C | 64% | 1015 hPa | 0 mm | - | - | - |
| 1777997823 | 17.78° C | 62% | 1015 hPa | 0 mm | - | - | - |
| 1777997223 | 17.22° C | 68% | 1015 hPa | 0 mm | - | - | - |
| 1777996622 | 16.67° C | 70% | 1015 hPa | 0 mm | - | - | - |
| 1777996022 | 17.22° C | 69% | 1015.1 hPa | 0 mm | - | - | - |
| 1777995423 | 16.11° C | 74% | 1015.1 hPa | 0 mm | - | - | - |
| 1777994823 | 15.56° C | 79% | 1015 hPa | 0 mm | - | - | - |
| 1777994223 | 15.56° C | 79% | 1014.9 hPa | 0 mm | - | - | - |
| 1777993622 | 15° C | 80% | 1015 hPa | 0 mm | - | - | - |
| 1777993022 | 14.44° C | 82% | 1014.8 hPa | 0 mm | - | - | - |
| 1777992422 | 14.44° C | 83% | 1014.8 hPa | 0 mm | - | - | - |
| 1777991823 | 15° C | 82% | 1014.8 hPa | 0 mm | - | - | - |
| 1777991223 | 13.89° C | 85% | 1014.7 hPa | 0 mm | - | - | - |
| 1777990622 | 14.44° C | 86% | 1014.6 hPa | 0 mm | - | - | - |
| 1777990022 | 12.78° C | 90% | 1014.6 hPa | 0 mm | - | - | - |
| 1777989422 | 12.78° C | 91% | 1014.5 hPa | 0 mm | - | - | - |
| 1777988822 | 12.78° C | 91% | 1014.6 hPa | 0 mm | - | - | - |
| 1777988223 | 12.22° C | 91% | 1014.6 hPa | 0 mm | - | - | - |
| 1777987622 | 12.22° C | 91% | 1014.4 hPa | 0 mm | - | - | - |
| 1777987023 | 12.22° C | 91% | 1014.4 hPa | 0 mm | - | - | - |
| 1777986423 | 12.22° C | 91% | 1014.2 hPa | 0 mm | - | - | - |
| 1777985823 | 12.22° C | 90% | 1014.2 hPa | 0 mm | - | - | - |
| 1777985223 | 12.22° C | 90% | 1014.3 hPa | 0 mm | - | - | - |
| 1777984622 | 12.78° C | 89% | 1014.2 hPa | 0 mm | - | - | - |
* Rain latest hour (hover to see other rain measurements)
** Current wind speed in m/s (hover to see current wind gust speed)